sensor_id;sensor_type;location;lat;lon;timestamp;P1;durP1;ratioP1;P2;durP2;ratioP2
21771;SDS011;11047;47.904;8.110;2023-04-03T00:01:25;2.40;;;2.20;;
21771;SDS011;11047;47.904;8.110;2023-04-03T00:03:52;2.40;;;2.20;;
21771;SDS011;11047;47.904;8.110;2023-04-03T00:06:19;2.85;;;2.58;;
21771;SDS011;11047;47.904;8.110;2023-04-03T00:08:46;2.63;;;2.42;;
21771;SDS011;11047;47.904;8.110;2023-04-03T00:11:13;3.00;;;2.22;;
21771;SDS011;11047;47.904;8.110;2023-04-03T00:13:42;2.47;;;2.13;;
21771;SDS011;11047;47.904;8.110;2023-04-03T00:16:10;2.55;;;2.35;;
21771;SDS011;11047;47.904;8.110;2023-04-03T00:18:37;2.58;;;2.15;;
21771;SDS011;11047;47.904;8.110;2023-04-03T00:21:05;2.53;;;2.30;;
21771;SDS011;11047;47.904;8.110;2023-04-03T00:23:33;2.53;;;2.33;;
21771;SDS011;11047;47.904;8.110;2023-04-03T00:26:00;2.67;;;2.33;;
21771;SDS011;11047;47.904;8.110;2023-04-03T00:28:28;1.95;;;1.85;;
21771;SDS011;11047;47.904;8.110;2023-04-03T00:30:56;2.08;;;1.88;;
21771;SDS011;11047;47.904;8.110;2023-04-03T00:33:23;1.95;;;1.85;;
21771;SDS011;11047;47.904;8.110;2023-04-03T00:35:50;2.30;;;2.10;;
21771;SDS011;11047;47.904;8.110;2023-04-03T00:38:17;2.17;;;1.98;;
21771;SDS011;11047;47.904;8.110;2023-04-03T00:40:45;2.75;;;1.92;;
21771;SDS011;11047;47.904;8.110;2023-04-03T00:43:14;2.80;;;2.20;;
21771;SDS011;11047;47.904;8.110;2023-04-03T00:45:43;2.63;;;2.13;;
21771;SDS011;11047;47.904;8.110;2023-04-03T00:48:13;2.30;;;2.10;;
21771;SDS011;11047;47.904;8.110;2023-04-03T00:50:43;3.25;;;2.25;;
21771;SDS011;11047;47.904;8.110;2023-04-03T00:53:11;2.40;;;2.20;;
21771;SDS011;11047;47.904;8.110;2023-04-03T00:55:42;2.50;;;2.13;;
21771;SDS011;11047;47.904;8.110;2023-04-03T00:58:10;2.40;;;2.05;;
21771;SDS011;11047;47.904;8.110;2023-04-03T01:00:40;2.72;;;2.22;;
21771;SDS011;11047;47.904;8.110;2023-04-03T01:03:11;3.35;;;2.42;;
21771;SDS011;11047;47.904;8.110;2023-04-03T01:05:39;4.30;;;2.60;;
21771;SDS011;11047;47.904;8.110;2023-04-03T01:08:06;2.88;;;2.28;;
21771;SDS011;11047;47.904;8.110;2023-04-03T01:10:33;2.80;;;2.25;;
21771;SDS011;11047;47.904;8.110;2023-04-03T01:13:00;2.45;;;2.00;;
21771;SDS011;11047;47.904;8.110;2023-04-03T01:15:27;2.20;;;2.00;;
21771;SDS011;11047;47.904;8.110;2023-04-03T01:17:58;2.75;;;1.73;;
21771;SDS011;11047;47.904;8.110;2023-04-03T01:20:40;2.42;;;2.03;;
21771;SDS011;11047;47.904;8.110;2023-04-03T01:23:26;2.40;;;1.90;;
21771;SDS011;11047;47.904;8.110;2023-04-03T01:26:07;1.67;;;1.58;;
21771;SDS011;11047;47.904;8.110;2023-04-03T01:28:36;1.40;;;1.30;;
21771;SDS011;11047;47.904;8.110;2023-04-03T01:31:06;1.40;;;1.30;;
21771;SDS011;11047;47.904;8.110;2023-04-03T01:33:41;2.55;;;1.60;;
21771;SDS011;11047;47.904;8.110;2023-04-03T01:36:09;1.13;;;1.02;;
21771;SDS011;11047;47.904;8.110;2023-04-03T01:38:39;1.50;;;1.40;;
21771;SDS011;11047;47.904;8.110;2023-04-03T01:41:06;1.50;;;1.20;;
21771;SDS011;11047;47.904;8.110;2023-04-03T01:43:33;1.30;;;1.20;;
21771;SDS011;11047;47.904;8.110;2023-04-03T01:46:00;1.10;;;1.08;;
21771;SDS011;11047;47.904;8.110;2023-04-03T01:48:27;1.00;;;1.00;;
21771;SDS011;11047;47.904;8.110;2023-04-03T01:50:55;1.10;;;0.90;;
21771;SDS011;11047;47.904;8.110;2023-04-03T01:53:22;0.80;;;0.80;;
21771;SDS011;11047;47.904;8.110;2023-04-03T01:55:48;1.10;;;0.95;;
21771;SDS011;11047;47.904;8.110;2023-04-03T01:58:15;0.85;;;0.85;;
21771;SDS011;11047;47.904;8.110;2023-04-03T02:00:42;1.02;;;0.93;;
21771;SDS011;11047;47.904;8.110;2023-04-03T02:03:09;1.20;;;1.10;;
21771;SDS011;11047;47.904;8.110;2023-04-03T02:05:37;1.10;;;1.00;;
21771;SDS011;11047;47.904;8.110;2023-04-03T02:08:05;1.20;;;1.10;;
21771;SDS011;11047;47.904;8.110;2023-04-03T02:10:32;2.22;;;1.30;;
21771;SDS011;11047;47.904;8.110;2023-04-03T02:12:59;1.23;;;1.15;;
21771;SDS011;11047;47.904;8.110;2023-04-03T02:15:26;1.40;;;1.30;;
21771;SDS011;11047;47.904;8.110;2023-04-03T02:17:53;1.20;;;1.10;;
21771;SDS011;11047;47.904;8.110;2023-04-03T02:20:20;1.95;;;1.80;;
21771;SDS011;11047;47.904;8.110;2023-04-03T02:22:47;1.50;;;1.38;;
21771;SDS011;11047;47.904;8.110;2023-04-03T02:25:15;1.60;;;1.50;;
21771;SDS011;11047;47.904;8.110;2023-04-03T02:27:43;1.70;;;1.50;;
21771;SDS011;11047;47.904;8.110;2023-04-03T02:30:11;1.67;;;1.48;;
21771;SDS011;11047;47.904;8.110;2023-04-03T02:32:39;1.67;;;1.58;;
21771;SDS011;11047;47.904;8.110;2023-04-03T02:35:07;1.70;;;1.60;;
21771;SDS011;11047;47.904;8.110;2023-04-03T02:37:35;2.30;;;2.10;;
21771;SDS011;11047;47.904;8.110;2023-04-03T02:40:02;2.15;;;1.95;;
21771;SDS011;11047;47.904;8.110;2023-04-03T02:42:31;2.10;;;1.90;;
21771;SDS011;11047;47.904;8.110;2023-04-03T02:44:58;2.17;;;1.98;;
21771;SDS011;11047;47.904;8.110;2023-04-03T02:47:25;1.70;;;1.60;;
21771;SDS011;11047;47.904;8.110;2023-04-03T02:49:52;4.95;;;2.33;;
21771;SDS011;11047;47.904;8.110;2023-04-03T02:52:19;3.08;;;2.13;;
21771;SDS011;11047;47.904;8.110;2023-04-03T02:54:46;4.15;;;1.95;;
21771;SDS011;11047;47.904;8.110;2023-04-03T02:57:13;2.15;;;1.95;;
21771;SDS011;11047;47.904;8.110;2023-04-03T02:59:42;2.45;;;2.20;;
21771;SDS011;11047;47.904;8.110;2023-04-03T03:02:09;2.80;;;2.20;;
21771;SDS011;11047;47.904;8.110;2023-04-03T03:04:36;2.17;;;1.98;;
21771;SDS011;11047;47.904;8.110;2023-04-03T03:07:03;2.22;;;2.03;;
21771;SDS011;11047;47.904;8.110;2023-04-03T03:09:30;2.08;;;1.90;;
21771;SDS011;11047;47.904;8.110;2023-04-03T03:11:57;2.42;;;2.22;;
21771;SDS011;11047;47.904;8.110;2023-04-03T03:14:25;1.90;;;1.80;;
21771;SDS011;11047;47.904;8.110;2023-04-03T03:16:53;3.83;;;2.72;;
21771;SDS011;11047;47.904;8.110;2023-04-03T03:19:20;3.70;;;2.95;;
21771;SDS011;11047;47.904;8.110;2023-04-03T03:21:47;2.78;;;2.58;;
21771;SDS011;11047;47.904;8.110;2023-04-03T03:24:14;7.30;;;5.63;;
21771;SDS011;11047;47.904;8.110;2023-04-03T03:26:42;3.70;;;2.95;;
21771;SDS011;11047;47.904;8.110;2023-04-03T03:29:09;3.30;;;3.00;;
21771;SDS011;11047;47.904;8.110;2023-04-03T03:31:36;2.97;;;2.70;;
21771;SDS011;11047;47.904;8.110;2023-04-03T03:34:04;3.30;;;3.00;;
21771;SDS011;11047;47.904;8.110;2023-04-03T03:36:31;3.38;;;3.03;;
21771;SDS011;11047;47.904;8.110;2023-04-03T03:38:58;3.08;;;2.85;;
21771;SDS011;11047;47.904;8.110;2023-04-03T03:41:25;3.25;;;2.95;;
21771;SDS011;11047;47.904;8.110;2023-04-03T03:43:52;3.97;;;3.28;;
21771;SDS011;11047;47.904;8.110;2023-04-03T03:46:19;3.67;;;3.38;;
21771;SDS011;11047;47.904;8.110;2023-04-03T03:48:45;4.20;;;3.78;;
21771;SDS011;11047;47.904;8.110;2023-04-03T03:51:14;6.22;;;4.03;;
21771;SDS011;11047;47.904;8.110;2023-04-03T03:53:41;4.35;;;3.95;;
21771;SDS011;11047;47.904;8.110;2023-04-03T03:56:07;4.63;;;3.85;;
21771;SDS011;11047;47.904;8.110;2023-04-03T03:58:35;5.60;;;3.53;;
21771;SDS011;11047;47.904;8.110;2023-04-03T04:01:02;5.07;;;4.35;;
21771;SDS011;11047;47.904;8.110;2023-04-03T04:03:30;4.50;;;4.10;;
21771;SDS011;11047;47.904;8.110;2023-04-03T04:05:57;5.03;;;4.15;;
21771;SDS011;11047;47.904;8.110;2023-04-03T04:08:26;6.20;;;5.00;;
21771;SDS011;11047;47.904;8.110;2023-04-03T04:10:53;4.00;;;3.60;;
21771;SDS011;11047;47.904;8.110;2023-04-03T04:13:20;5.25;;;4.47;;
21771;SDS011;11047;47.904;8.110;2023-04-03T04:15:47;3.80;;;3.50;;
21771;SDS011;11047;47.904;8.110;2023-04-03T04:18:13;4.55;;;3.65;;
21771;SDS011;11047;47.904;8.110;2023-04-03T04:20:40;5.97;;;4.45;;
21771;SDS011;11047;47.904;8.110;2023-04-03T04:23:07;5.57;;;3.95;;
21771;SDS011;11047;47.904;8.110;2023-04-03T04:25:35;8.57;;;3.70;;
21771;SDS011;11047;47.904;8.110;2023-04-03T04:28:02;5.15;;;4.18;;
21771;SDS011;11047;47.904;8.110;2023-04-03T04:30:30;4.40;;;4.00;;
21771;SDS011;11047;47.904;8.110;2023-04-03T04:32:56;5.70;;;4.10;;
21771;SDS011;11047;47.904;8.110;2023-04-03T04:35:23;4.00;;;3.60;;
21771;SDS011;11047;47.904;8.110;2023-04-03T04:37:50;4.10;;;3.70;;
21771;SDS011;11047;47.904;8.110;2023-04-03T04:40:17;4.15;;;3.75;;
21771;SDS011;11047;47.904;8.110;2023-04-03T04:42:45;4.97;;;4.03;;
21771;SDS011;11047;47.904;8.110;2023-04-03T04:45:12;4.65;;;4.03;;
21771;SDS011;11047;47.904;8.110;2023-04-03T04:47:40;4.10;;;3.70;;
21771;SDS011;11047;47.904;8.110;2023-04-03T04:50:07;4.78;;;4.30;;
21771;SDS011;11047;47.904;8.110;2023-04-03T04:52:35;5.18;;;4.43;;
21771;SDS011;11047;47.904;8.110;2023-04-03T04:55:02;7.82;;;5.65;;
21771;SDS011;11047;47.904;8.110;2023-04-03T04:57:29;7.85;;;5.03;;
21771;SDS011;11047;47.904;8.110;2023-04-03T04:59:57;5.53;;;4.90;;
21771;SDS011;11047;47.904;8.110;2023-04-03T05:02:24;5.28;;;4.50;;
21771;SDS011;11047;47.904;8.110;2023-04-03T05:04:51;5.53;;;4.65;;
21771;SDS011;11047;47.904;8.110;2023-04-03T05:07:18;5.68;;;4.30;;
21771;SDS011;11047;47.904;8.110;2023-04-03T05:09:45;4.75;;;4.28;;
21771;SDS011;11047;47.904;8.110;2023-04-03T05:12:12;5.05;;;4.30;;
21771;SDS011;11047;47.904;8.110;2023-04-03T05:14:38;5.10;;;4.20;;
21771;SDS011;11047;47.904;8.110;2023-04-03T05:17:07;4.97;;;4.35;;
21771;SDS011;11047;47.904;8.110;2023-04-03T05:19:34;4.65;;;4.15;;
21771;SDS011;11047;47.904;8.110;2023-04-03T05:22:01;5.60;;;4.25;;
21771;SDS011;11047;47.904;8.110;2023-04-03T05:24:28;4.95;;;4.50;;
21771;SDS011;11047;47.904;8.110;2023-04-03T05:26:55;4.97;;;4.50;;
21771;SDS011;11047;47.904;8.110;2023-04-03T05:29:22;5.15;;;4.65;;
21771;SDS011;11047;47.904;8.110;2023-04-03T05:31:49;5.03;;;4.15;;
21771;SDS011;11047;47.904;8.110;2023-04-03T05:34:18;5.78;;;5.18;;
21771;SDS011;11047;47.904;8.110;2023-04-03T05:36:45;4.57;;;4.07;;
21771;SDS011;11047;47.904;8.110;2023-04-03T05:39:12;5.20;;;4.22;;
21771;SDS011;11047;47.904;8.110;2023-04-03T05:41:38;5.72;;;4.80;;
21771;SDS011;11047;47.904;8.110;2023-04-03T05:44:05;4.82;;;4.32;;
21771;SDS011;11047;47.904;8.110;2023-04-03T05:46:32;5.63;;;5.03;;
21771;SDS011;11047;47.904;8.110;2023-04-03T05:48:59;5.93;;;4.43;;
21771;SDS011;11047;47.904;8.110;2023-04-03T05:51:29;5.97;;;4.90;;
21771;SDS011;11047;47.904;8.110;2023-04-03T05:54:01;6.37;;;4.93;;
21771;SDS011;11047;47.904;8.110;2023-04-03T05:56:33;5.22;;;4.32;;
21771;SDS011;11047;47.904;8.110;2023-04-03T05:59:00;4.25;;;3.85;;
21771;SDS011;11047;47.904;8.110;2023-04-03T06:01:27;4.68;;;4.20;;
21771;SDS011;11047;47.904;8.110;2023-04-03T06:03:56;4.43;;;4.03;;
21771;SDS011;11047;47.904;8.110;2023-04-03T06:06:23;4.60;;;4.10;;
21771;SDS011;11047;47.904;8.110;2023-04-03T06:08:52;4.25;;;3.67;;
21771;SDS011;11047;47.904;8.110;2023-04-03T06:11:19;3.42;;;3.13;;
21771;SDS011;11047;47.904;8.110;2023-04-03T06:13:46;3.50;;;3.17;;
21771;SDS011;11047;47.904;8.110;2023-04-03T06:16:13;4.55;;;3.55;;
21771;SDS011;11047;47.904;8.110;2023-04-03T06:18:43;3.58;;;3.28;;
21771;SDS011;11047;47.904;8.110;2023-04-03T06:24:02;5.63;;;2.97;;
21771;SDS011;11047;47.904;8.110;2023-04-03T06:26:30;3.72;;;2.65;;
21771;SDS011;11047;47.904;8.110;2023-04-03T06:28:57;5.47;;;3.05;;
21771;SDS011;11047;47.904;8.110;2023-04-03T06:31:23;2.72;;;2.42;;
21771;SDS011;11047;47.904;8.110;2023-04-03T06:33:50;3.25;;;2.72;;
21771;SDS011;11047;47.904;8.110;2023-04-03T06:36:18;3.38;;;2.75;;
21771;SDS011;11047;47.904;8.110;2023-04-03T06:38:46;2.97;;;2.55;;
21771;SDS011;11047;47.904;8.110;2023-04-03T06:41:15;2.55;;;2.35;;
21771;SDS011;11047;47.904;8.110;2023-04-03T06:43:42;4.35;;;2.80;;
21771;SDS011;11047;47.904;8.110;2023-04-03T06:46:12;4.40;;;3.40;;
21771;SDS011;11047;47.904;8.110;2023-04-03T06:48:43;4.68;;;3.25;;
21771;SDS011;11047;47.904;8.110;2023-04-03T06:51:14;3.80;;;3.20;;
21771;SDS011;11047;47.904;8.110;2023-04-03T06:53:44;4.45;;;3.70;;
21771;SDS011;11047;47.904;8.110;2023-04-03T06:56:11;3.85;;;3.45;;
21771;SDS011;11047;47.904;8.110;2023-04-03T06:58:39;5.15;;;3.40;;
21771;SDS011;11047;47.904;8.110;2023-04-03T07:01:06;4.70;;;4.15;;
21771;SDS011;11047;47.904;8.110;2023-04-03T07:03:34;6.82;;;3.92;;
21771;SDS011;11047;47.904;8.110;2023-04-03T07:06:02;3.72;;;3.42;;
21771;SDS011;11047;47.904;8.110;2023-04-03T07:08:29;3.90;;;3.50;;
21771;SDS011;11047;47.904;8.110;2023-04-03T07:10:56;6.53;;;4.05;;
21771;SDS011;11047;47.904;8.110;2023-04-03T07:13:23;4.10;;;3.70;;
21771;SDS011;11047;47.904;8.110;2023-04-03T07:15:51;3.97;;;3.50;;
21771;SDS011;11047;47.904;8.110;2023-04-03T07:18:18;4.55;;;4.15;;
21771;SDS011;11047;47.904;8.110;2023-04-03T07:20:46;4.93;;;4.15;;
21771;SDS011;11047;47.904;8.110;2023-04-03T07:23:13;5.20;;;4.05;;
21771;SDS011;11047;47.904;8.110;2023-04-03T07:25:42;4.55;;;4.15;;
21771;SDS011;11047;47.904;8.110;2023-04-03T07:28:09;4.20;;;3.80;;
21771;SDS011;11047;47.904;8.110;2023-04-03T07:30:41;4.55;;;4.15;;
21771;SDS011;11047;47.904;8.110;2023-04-03T07:33:10;5.65;;;3.97;;
21771;SDS011;11047;47.904;8.110;2023-04-03T07:35:38;4.93;;;4.18;;
21771;SDS011;11047;47.904;8.110;2023-04-03T07:38:05;7.20;;;4.10;;
21771;SDS011;11047;47.904;8.110;2023-04-03T07:40:32;6.82;;;4.65;;
21771;SDS011;11047;47.904;8.110;2023-04-03T07:43:00;5.03;;;4.55;;
21771;SDS011;11047;47.904;8.110;2023-04-03T07:45:27;5.82;;;4.40;;
21771;SDS011;11047;47.904;8.110;2023-04-03T07:47:54;4.65;;;4.18;;
21771;SDS011;11047;47.904;8.110;2023-04-03T07:50:23;6.32;;;4.55;;
21771;SDS011;11047;47.904;8.110;2023-04-03T07:52:52;8.93;;;4.55;;
21771;SDS011;11047;47.904;8.110;2023-04-03T07:55:19;4.55;;;4.07;;
21771;SDS011;11047;47.904;8.110;2023-04-03T07:57:46;6.38;;;5.15;;
21771;SDS011;11047;47.904;8.110;2023-04-03T08:00:13;5.65;;;4.70;;
21771;SDS011;11047;47.904;8.110;2023-04-03T08:02:42;4.50;;;4.10;;
21771;SDS011;11047;47.904;8.110;2023-04-03T08:05:09;7.15;;;5.15;;
21771;SDS011;11047;47.904;8.110;2023-04-03T08:07:38;8.02;;;4.90;;
21771;SDS011;11047;47.904;8.110;2023-04-03T08:10:05;7.70;;;4.43;;
21771;SDS011;11047;47.904;8.110;2023-04-03T08:12:32;5.70;;;4.63;;
21771;SDS011;11047;47.904;8.110;2023-04-03T08:14:59;5.88;;;4.22;;
21771;SDS011;11047;47.904;8.110;2023-04-03T08:17:27;4.78;;;4.28;;
21771;SDS011;11047;47.904;8.110;2023-04-03T08:19:54;7.07;;;4.90;;
21771;SDS011;11047;47.904;8.110;2023-04-03T08:22:21;5.72;;;4.60;;
21771;SDS011;11047;47.904;8.110;2023-04-03T08:24:49;5.50;;;3.70;;
21771;SDS011;11047;47.904;8.110;2023-04-03T08:27:16;5.07;;;3.60;;
21771;SDS011;11047;47.904;8.110;2023-04-03T08:29:43;4.10;;;3.67;;
21771;SDS011;11047;47.904;8.110;2023-04-03T08:32:10;4.80;;;3.78;;
21771;SDS011;11047;47.904;8.110;2023-04-03T08:34:37;5.10;;;3.78;;
21771;SDS011;11047;47.904;8.110;2023-04-03T08:37:04;5.30;;;3.67;;
21771;SDS011;11047;47.904;8.110;2023-04-03T08:39:31;5.80;;;4.00;;
21771;SDS011;11047;47.904;8.110;2023-04-03T08:42:01;4.38;;;3.88;;
21771;SDS011;11047;47.904;8.110;2023-04-03T08:44:36;4.50;;;3.78;;
21771;SDS011;11047;47.904;8.110;2023-04-03T08:47:11;4.00;;;3.40;;
21771;SDS011;11047;47.904;8.110;2023-04-03T08:49:45;4.05;;;3.20;;
21771;SDS011;11047;47.904;8.110;2023-04-03T08:52:17;3.78;;;3.38;;
21771;SDS011;11047;47.904;8.110;2023-04-03T08:54:50;3.67;;;2.97;;
21771;SDS011;11047;47.904;8.110;2023-04-03T08:57:23;3.80;;;2.80;;
21771;SDS011;11047;47.904;8.110;2023-04-03T08:59:54;3.33;;;2.80;;
21771;SDS011;11047;47.904;8.110;2023-04-03T09:02:24;4.50;;;2.45;;
21771;SDS011;11047;47.904;8.110;2023-04-03T09:04:54;3.85;;;2.58;;
21771;SDS011;11047;47.904;8.110;2023-04-03T09:07:22;3.00;;;2.50;;
21771;SDS011;11047;47.904;8.110;2023-04-03T09:09:56;2.30;;;2.00;;
21771;SDS011;11047;47.904;8.110;2023-04-03T09:12:31;3.78;;;2.05;;
21771;SDS011;11047;47.904;8.110;2023-04-03T09:15:02;2.45;;;2.17;;
21771;SDS011;11047;47.904;8.110;2023-04-03T09:17:41;2.65;;;2.45;;
21771;SDS011;11047;47.904;8.110;2023-04-03T09:20:17;8.63;;;2.47;;
21771;SDS011;11047;47.904;8.110;2023-04-03T09:22:51;6.10;;;2.28;;
21771;SDS011;11047;47.904;8.110;2023-04-03T09:25:20;2.28;;;2.08;;
21771;SDS011;11047;47.904;8.110;2023-04-03T09:27:49;2.60;;;2.17;;
21771;SDS011;11047;47.904;8.110;2023-04-03T09:30:18;2.28;;;2.08;;
21771;SDS011;11047;47.904;8.110;2023-04-03T09:32:46;2.90;;;2.47;;
21771;SDS011;11047;47.904;8.110;2023-04-03T09:35:21;2.45;;;2.25;;
21771;SDS011;11047;47.904;8.110;2023-04-03T09:37:51;2.13;;;1.83;;
21771;SDS011;11047;47.904;8.110;2023-04-03T09:40:29;2.55;;;2.20;;
21771;SDS011;11047;47.904;8.110;2023-04-03T09:43:03;3.13;;;2.83;;
21771;SDS011;11047;47.904;8.110;2023-04-03T09:45:53;2.75;;;2.28;;
21771;SDS011;11047;47.904;8.110;2023-04-03T09:48:21;3.30;;;2.38;;
21771;SDS011;11047;47.904;8.110;2023-04-03T09:50:56;3.35;;;2.25;;
21771;SDS011;11047;47.904;8.110;2023-04-03T09:53:26;2.78;;;2.53;;
21771;SDS011;11047;47.904;8.110;2023-04-03T09:55:58;2.55;;;2.17;;
21771;SDS011;11047;47.904;8.110;2023-04-03T09:58:30;2.67;;;2.25;;
21771;SDS011;11047;47.904;8.110;2023-04-03T10:00:59;3.05;;;2.30;;
21771;SDS011;11047;47.904;8.110;2023-04-03T10:03:29;2.45;;;2.22;;
21771;SDS011;11047;47.904;8.110;2023-04-03T10:05:57;2.35;;;2.15;;
21771;SDS011;11047;47.904;8.110;2023-04-03T10:08:26;3.63;;;2.70;;
21771;SDS011;11047;47.904;8.110;2023-04-03T10:11:06;2.00;;;1.90;;
21771;SDS011;11047;47.904;8.110;2023-04-03T10:13:36;3.10;;;2.38;;
21771;SDS011;11047;47.904;8.110;2023-04-03T10:16:17;2.25;;;2.03;;
21771;SDS011;11047;47.904;8.110;2023-04-03T10:18:46;2.80;;;2.13;;
21771;SDS011;11047;47.904;8.110;2023-04-03T10:21:24;3.85;;;2.85;;
21771;SDS011;11047;47.904;8.110;2023-04-03T10:24:03;2.40;;;2.20;;
21771;SDS011;11047;47.904;8.110;2023-04-03T10:26:38;2.60;;;2.40;;
21771;SDS011;11047;47.904;8.110;2023-04-03T10:29:14;2.40;;;2.13;;
21771;SDS011;11047;47.904;8.110;2023-04-03T10:31:52;2.13;;;1.92;;
21771;SDS011;11047;47.904;8.110;2023-04-03T10:34:28;3.00;;;2.30;;
21771;SDS011;11047;47.904;8.110;2023-04-03T10:37:00;2.80;;;2.30;;
21771;SDS011;11047;47.904;8.110;2023-04-03T10:39:35;2.67;;;2.10;;
21771;SDS011;11047;47.904;8.110;2023-04-03T10:42:11;2.45;;;2.15;;
21771;SDS011;11047;47.904;8.110;2023-04-03T10:44:46;2.30;;;2.10;;
21771;SDS011;11047;47.904;8.110;2023-04-03T10:47:24;5.35;;;2.40;;
21771;SDS011;11047;47.904;8.110;2023-04-03T10:50:00;3.08;;;2.58;;
21771;SDS011;11047;47.904;8.110;2023-04-03T10:52:36;3.85;;;2.25;;
21771;SDS011;11047;47.904;8.110;2023-04-03T10:55:14;2.33;;;2.13;;
21771;SDS011;11047;47.904;8.110;2023-04-03T10:57:50;2.40;;;2.08;;
21771;SDS011;11047;47.904;8.110;2023-04-03T11:00:21;1.98;;;1.77;;
21771;SDS011;11047;47.904;8.110;2023-04-03T11:08:13;4.70;;;2.45;;
21771;SDS011;11047;47.904;8.110;2023-04-03T11:10:51;3.28;;;2.22;;
21771;SDS011;11047;47.904;8.110;2023-04-03T11:13:22;4.30;;;2.15;;
21771;SDS011;11047;47.904;8.110;2023-04-03T11:15:58;3.38;;;2.60;;
21771;SDS011;11047;47.904;8.110;2023-04-03T11:18:25;2.75;;;2.50;;
21771;SDS011;11047;47.904;8.110;2023-04-03T11:20:59;2.60;;;2.40;;
21771;SDS011;11047;47.904;8.110;2023-04-03T11:23:30;3.10;;;2.72;;
21771;SDS011;11047;47.904;8.110;2023-04-03T11:26:04;3.83;;;2.65;;
21771;SDS011;11047;47.904;8.110;2023-04-03T11:28:36;3.17;;;2.30;;
21771;SDS011;11047;47.904;8.110;2023-04-03T11:31:08;2.88;;;2.55;;
21771;SDS011;11047;47.904;8.110;2023-04-03T11:33:44;3.10;;;2.53;;
21771;SDS011;11047;47.904;8.110;2023-04-03T11:36:22;4.32;;;2.47;;
21771;SDS011;11047;47.904;8.110;2023-04-03T11:41:23;6.03;;;2.15;;
21771;SDS011;11047;47.904;8.110;2023-04-03T11:43:57;3.35;;;2.35;;
21771;SDS011;11047;47.904;8.110;2023-04-03T11:58:22;4.97;;;2.58;;
21771;SDS011;11047;47.904;8.110;2023-04-03T12:00:55;3.80;;;2.55;;
21771;SDS011;11047;47.904;8.110;2023-04-03T12:09:29;3.53;;;2.70;;
21771;SDS011;11047;47.904;8.110;2023-04-03T12:12:38;3.13;;;2.50;;
21771;SDS011;11047;47.904;8.110;2023-04-03T12:15:17;3.20;;;2.40;;
21771;SDS011;11047;47.904;8.110;2023-04-03T12:17:49;3.38;;;2.33;;
21771;SDS011;11047;47.904;8.110;2023-04-03T12:23:25;2.83;;;2.63;;
21771;SDS011;11047;47.904;8.110;2023-04-03T12:26:00;3.38;;;2.80;;
21771;SDS011;11047;47.904;8.110;2023-04-03T12:28:31;3.45;;;2.50;;
21771;SDS011;11047;47.904;8.110;2023-04-03T12:31:04;2.83;;;2.25;;
21771;SDS011;11047;47.904;8.110;2023-04-03T12:33:33;5.13;;;2.60;;
21771;SDS011;11047;47.904;8.110;2023-04-03T12:36:11;2.63;;;2.42;;
21771;SDS011;11047;47.904;8.110;2023-04-03T12:42:11;2.60;;;2.17;;
21771;SDS011;11047;47.904;8.110;2023-04-03T12:44:47;3.17;;;2.42;;
21771;SDS011;11047;47.904;8.110;2023-04-03T12:47:24;3.60;;;2.20;;
21771;SDS011;11047;47.904;8.110;2023-04-03T12:49:53;2.45;;;1.67;;
21771;SDS011;11047;47.904;8.110;2023-04-03T12:52:30;3.38;;;2.25;;
21771;SDS011;11047;47.904;8.110;2023-04-03T12:55:07;3.33;;;2.65;;
21771;SDS011;11047;47.904;8.110;2023-04-03T12:57:41;3.25;;;2.50;;
21771;SDS011;11047;47.904;8.110;2023-04-03T13:03:05;2.67;;;2.22;;
21771;SDS011;11047;47.904;8.110;2023-04-03T13:05:44;2.97;;;2.45;;
21771;SDS011;11047;47.904;8.110;2023-04-03T13:08:12;4.38;;;2.20;;
21771;SDS011;11047;47.904;8.110;2023-04-03T13:10:43;4.53;;;2.53;;
21771;SDS011;11047;47.904;8.110;2023-04-03T13:13:17;6.03;;;2.47;;
21771;SDS011;11047;47.904;8.110;2023-04-03T13:15:50;2.63;;;2.40;;
21771;SDS011;11047;47.904;8.110;2023-04-03T13:18:23;3.65;;;2.60;;
21771;SDS011;11047;47.904;8.110;2023-04-03T13:20:53;2.55;;;2.10;;
21771;SDS011;11047;47.904;8.110;2023-04-03T13:23:23;3.80;;;2.45;;
21771;SDS011;11047;47.904;8.110;2023-04-03T13:25:50;2.58;;;2.30;;
21771;SDS011;11047;47.904;8.110;2023-04-03T13:28:20;2.78;;;1.95;;
21771;SDS011;11047;47.904;8.110;2023-04-03T13:30:55;3.28;;;2.78;;
21771;SDS011;11047;47.904;8.110;2023-04-03T13:33:28;2.83;;;2.38;;
21771;SDS011;11047;47.904;8.110;2023-04-03T13:36:16;3.75;;;2.50;;
21771;SDS011;11047;47.904;8.110;2023-04-03T13:38:45;3.55;;;2.65;;
21771;SDS011;11047;47.904;8.110;2023-04-03T13:46:55;4.47;;;2.55;;
21771;SDS011;11047;47.904;8.110;2023-04-03T13:49:28;3.58;;;2.35;;
21771;SDS011;11047;47.904;8.110;2023-04-03T13:51:57;4.07;;;2.35;;
21771;SDS011;11047;47.904;8.110;2023-04-03T13:54:28;4.35;;;2.35;;
21771;SDS011;11047;47.904;8.110;2023-04-03T13:56:58;3.22;;;2.45;;
21771;SDS011;11047;47.904;8.110;2023-04-03T13:59:28;3.13;;;2.78;;
21771;SDS011;11047;47.904;8.110;2023-04-03T14:02:09;5.90;;;3.10;;
21771;SDS011;11047;47.904;8.110;2023-04-03T14:07:29;3.78;;;2.40;;
21771;SDS011;11047;47.904;8.110;2023-04-03T14:09:57;4.15;;;2.33;;
21771;SDS011;11047;47.904;8.110;2023-04-03T14:12:26;2.65;;;2.10;;
21771;SDS011;11047;47.904;8.110;2023-04-03T14:14:56;3.13;;;2.53;;
21771;SDS011;11047;47.904;8.110;2023-04-03T14:17:25;3.17;;;2.33;;
21771;SDS011;11047;47.904;8.110;2023-04-03T14:19:53;3.25;;;2.35;;
21771;SDS011;11047;47.904;8.110;2023-04-03T14:22:22;1.83;;;1.73;;
21771;SDS011;11047;47.904;8.110;2023-04-03T14:24:50;2.60;;;2.40;;
21771;SDS011;11047;47.904;8.110;2023-04-03T14:27:18;2.60;;;1.98;;
21771;SDS011;11047;47.904;8.110;2023-04-03T14:29:47;2.70;;;2.30;;
21771;SDS011;11047;47.904;8.110;2023-04-03T14:32:17;2.67;;;1.88;;
21771;SDS011;11047;47.904;8.110;2023-04-03T14:34:45;4.95;;;2.47;;
21771;SDS011;11047;47.904;8.110;2023-04-03T14:37:13;1.88;;;1.67;;
21771;SDS011;11047;47.904;8.110;2023-04-03T14:39:41;3.53;;;2.10;;
21771;SDS011;11047;47.904;8.110;2023-04-03T14:42:11;3.28;;;2.30;;
21771;SDS011;11047;47.904;8.110;2023-04-03T14:44:40;3.80;;;2.63;;
21771;SDS011;11047;47.904;8.110;2023-04-03T14:47:09;3.13;;;2.40;;
21771;SDS011;11047;47.904;8.110;2023-04-03T14:49:38;4.70;;;2.10;;
21771;SDS011;11047;47.904;8.110;2023-04-03T14:52:05;4.40;;;2.17;;
21771;SDS011;11047;47.904;8.110;2023-04-03T14:54:33;3.90;;;2.45;;
21771;SDS011;11047;47.904;8.110;2023-04-03T14:57:00;3.65;;;2.53;;
21771;SDS011;11047;47.904;8.110;2023-04-03T14:59:28;2.63;;;2.30;;
21771;SDS011;11047;47.904;8.110;2023-04-03T15:01:56;3.13;;;2.20;;
21771;SDS011;11047;47.904;8.110;2023-04-03T15:04:23;3.42;;;2.25;;
21771;SDS011;11047;47.904;8.110;2023-04-03T15:06:52;9.02;;;2.50;;
21771;SDS011;11047;47.904;8.110;2023-04-03T15:09:20;5.85;;;2.45;;
21771;SDS011;11047;47.904;8.110;2023-04-03T15:11:47;3.20;;;2.60;;
21771;SDS011;11047;47.904;8.110;2023-04-03T15:14:15;3.78;;;2.50;;
21771;SDS011;11047;47.904;8.110;2023-04-03T15:16:42;5.18;;;2.72;;
21771;SDS011;11047;47.904;8.110;2023-04-03T15:19:09;3.35;;;2.08;;
21771;SDS011;11047;47.904;8.110;2023-04-03T15:21:36;3.92;;;2.70;;
21771;SDS011;11047;47.904;8.110;2023-04-03T15:24:05;4.00;;;2.45;;
21771;SDS011;11047;47.904;8.110;2023-04-03T15:26:32;2.60;;;2.40;;
21771;SDS011;11047;47.904;8.110;2023-04-03T15:28:59;3.20;;;2.65;;
21771;SDS011;11047;47.904;8.110;2023-04-03T15:31:27;4.72;;;2.70;;
21771;SDS011;11047;47.904;8.110;2023-04-03T15:33:54;2.90;;;2.13;;
21771;SDS011;11047;47.904;8.110;2023-04-03T15:36:21;3.63;;;2.30;;
21771;SDS011;11047;47.904;8.110;2023-04-03T15:38:48;2.22;;;2.05;;
21771;SDS011;11047;47.904;8.110;2023-04-03T15:41:17;4.03;;;2.30;;
21771;SDS011;11047;47.904;8.110;2023-04-03T15:43:44;4.43;;;2.35;;
21771;SDS011;11047;47.904;8.110;2023-04-03T15:46:12;3.88;;;2.58;;
21771;SDS011;11047;47.904;8.110;2023-04-03T15:48:39;5.30;;;2.90;;